Time;durP1;ratioP1;P1;durP2;ratioP2;P2;SDS_P1;SDS_P2;PMS_P1;PMS_P2;Temp;Humidity;BMP_temperature;BMP_pressure;BME280_temperature;BME280_humidity;BME280_pressure;Samples;Min_cycle;Max_cycle;Signal;HPM_P1;HPM_P2
2021/01/01 00:00:34;;;;;;;43.05;38.47;;;;;;;15.89;62.25;100700.75;4917025;29;20052;-80
2021/01/01 00:03:00;;;;;;;45.42;40.50;;;;;;;15.75;60.35;100700.84;4880238;29;20507;-79
2021/01/01 00:05:30;;;;;;;48.20;42.33;;;;;;;15.68;60.89;100703.41;4897707;29;20383;-79
2021/01/01 00:07:55;;;;;;;46.38;41.10;;;;;;;15.61;61.16;100697.38;4898848;29;20032;-79
2021/01/01 00:10:21;;;;;;;48.15;42.83;;;;;;;15.57;61.11;100699.16;4899508;29;20107;-79
2021/01/01 00:12:47;;;;;;;49.20;43.97;;;;;;;15.52;61.36;100697.44;4903763;29;20032;-79
2021/01/01 00:15:13;;;;;;;49.80;44.45;;;;;;;15.49;61.00;100697.44;4916577;29;20039;-78
2021/01/01 00:17:39;;;;;;;49.85;44.47;;;;;;;15.46;60.70;100703.50;4880454;29;20063;-78
2021/01/01 00:20:08;;;;;;;49.17;43.80;;;;;;;15.45;60.37;100706.09;4901680;29;20040;-78
2021/01/01 00:22:33;;;;;;;51.05;45.17;;;;;;;15.42;60.70;100697.47;4904568;29;20039;-78
2021/01/01 00:24:59;;;;;;;53.58;46.72;;;;;;;15.41;60.56;100697.47;4922682;29;20086;-78
2021/01/01 00:27:28;;;;;;;51.95;46.45;;;;;;;15.40;61.58;100700.94;4888455;29;20035;-78
2021/01/01 00:29:53;;;;;;;53.00;47.28;;;;;;;15.38;60.72;100692.28;4919771;29;20374;-78
2021/01/01 00:32:19;;;;;;;56.08;48.95;;;;;;;15.39;60.91;100692.25;4886924;29;20127;-78
2021/01/01 00:34:45;;;;;;;54.25;48.45;;;;;;;15.39;61.28;100697.44;4871981;29;20440;-78
2021/01/01 00:37:10;;;;;;;55.92;48.95;;;;;;;15.38;61.78;100697.47;4882774;29;20033;-78
2021/01/01 00:39:35;;;;;;;56.65;50.45;;;;;;;15.36;60.42;100694.03;4893933;29;20039;-78
2021/01/01 00:42:02;;;;;;;57.78;49.88;;;;;;;15.35;60.40;100693.16;4885492;29;20083;-77
2021/01/01 00:44:28;;;;;;;58.22;50.53;;;;;;;15.36;60.89;100691.44;4912686;29;20032;-77
2021/01/01 00:46:53;;;;;;;57.50;51.22;;;;;;;15.34;60.30;100693.16;4886185;29;20047;-77
2021/01/01 00:49:18;;;;;;;60.63;53.47;;;;;;;15.37;62.16;100695.72;4903302;29;20105;-77
2021/01/01 00:51:46;;;;;;;58.65;52.42;;;;;;;15.34;61.01;100696.59;4917487;29;20468;-78
2021/01/01 00:54:11;;;;;;;61.30;53.80;;;;;;;15.34;61.09;100695.75;4909118;29;20028;-78
2021/01/01 00:56:37;;;;;;;61.33;54.65;;;;;;;15.33;61.72;100701.78;4893469;29;20067;-78
2021/01/01 00:59:02;;;;;;;60.25;52.30;;;;;;;15.32;60.44;100697.47;4882644;29;20111;-78
2021/01/01 01:01:28;;;;;;;60.90;54.20;;;;;;;15.33;61.26;100691.41;4899862;29;20570;-78
2021/01/01 01:03:55;;;;;;;59.17;52.70;;;;;;;15.30;60.29;100697.47;4899225;29;20055;-78
2021/01/01 01:06:22;;;;;;;61.70;53.45;;;;;;;15.30;60.14;100696.63;4908816;29;20028;-78
2021/01/01 01:08:47;;;;;;;61.92;55.20;;;;;;;15.30;62.08;100701.81;4914790;29;20024;-77
2021/01/01 01:11:13;;;;;;;60.95;54.28;;;;;;;15.30;60.43;100696.63;4916537;29;20024;-78
2021/01/01 01:13:38;;;;;;;60.58;53.92;;;;;;;15.28;60.23;100698.34;4881475;29;20120;-78
2021/01/01 01:16:04;;;;;;;62.47;54.13;;;;;;;15.29;60.21;100702.69;4915227;29;20038;-77
2021/01/01 01:18:30;;;;;;;61.03;54.35;;;;;;;15.27;60.03;100700.09;4916495;29;20066;-78
2021/01/01 01:20:55;;;;;;;62.42;54.70;;;;;;;15.27;60.23;100705.28;4900079;29;20057;-78
2021/01/01 01:23:21;;;;;;;58.88;52.42;;;;;;;15.26;60.10;100705.28;4915432;29;20047;-78
2021/01/01 01:25:47;;;;;;;59.03;52.13;;;;;;;15.27;60.31;100699.25;4883534;29;20035;-78
2021/01/01 01:28:13;;;;;;;60.05;53.33;;;;;;;15.26;60.25;100697.50;4916057;29;20040;-78
2021/01/01 01:30:38;;;;;;;62.35;54.55;;;;;;;15.24;60.58;100707.84;4899924;29;20562;-78
2021/01/01 01:33:04;;;;;;;62.75;53.55;;;;;;;15.25;60.02;100707.00;4890997;29;20048;-78
2021/01/01 01:35:29;;;;;;;61.17;53.88;;;;;;;15.25;60.86;100711.34;4899690;29;20028;-78
2021/01/01 01:37:55;;;;;;;60.35;53.83;;;;;;;15.25;59.89;100712.19;4915070;29;20028;-79
2021/01/01 01:40:21;;;;;;;60.50;53.17;;;;;;;15.26;60.23;100710.44;4914330;29;20083;-78
2021/01/01 01:42:47;;;;;;;58.90;52.42;;;;;;;15.24;59.96;100715.63;4915042;29;20059;-78
2021/01/01 01:45:13;;;;;;;59.70;52.90;;;;;;;15.24;60.68;100713.03;4916255;29;20457;-78
2021/01/01 01:47:39;;;;;;;59.90;53.33;;;;;;;15.21;59.83;100711.31;4915802;29;20063;-78
2021/01/01 01:50:05;;;;;;;59.60;52.42;;;;;;;15.25;61.74;100721.72;4897169;29;20104;-78
2021/01/01 01:52:32;;;;;;;61.63;53.78;;;;;;;15.23;60.12;100721.69;4897135;29;20028;-78
2021/01/01 01:54:58;;;;;;;59.17;52.65;;;;;;;15.22;59.56;100718.25;4915596;29;20048;-78
2021/01/01 01:57:26;;;;;;;57.60;50.83;;;;;;;15.21;59.46;100718.25;4883918;29;20094;-78
2021/01/01 01:59:56;;;;;;;60.90;52.88;;;;;;;15.21;60.39;100724.28;4894907;29;20093;-78
2021/01/01 02:02:22;;;;;;;60.13;53.33;;;;;;;15.20;59.63;100725.16;4912567;29;20024;-78
2021/01/01 02:04:48;;;;;;;61.28;53.45;;;;;;;15.18;59.61;100726.91;4915746;29;20028;-78
2021/01/01 02:07:13;;;;;;;57.95;51.70;;;;;;;15.20;59.58;100732.09;4915842;29;20087;-78
2021/01/01 02:09:39;;;;;;;59.67;52.58;;;;;;;15.20;59.58;100729.50;4915542;29;20020;-78
2021/01/01 02:12:06;;;;;;;59.67;52.28;;;;;;;15.19;59.65;100728.59;4915877;29;20036;-77
2021/01/01 02:14:32;;;;;;;58.88;52.40;;;;;;;15.19;59.57;100730.34;4915308;29;20032;-78
2021/01/01 02:16:57;;;;;;;59.38;52.28;;;;;;;15.20;59.73;100729.50;4896790;29;20151;-79
2021/01/01 02:19:22;;;;;;;58.55;51.42;;;;;;;15.19;59.59;100736.38;4875823;29;20032;-78
2021/01/01 02:21:49;;;;;;;60.83;52.22;;;;;;;15.18;59.23;100732.06;4887515;29;20040;-77
2021/01/01 02:24:14;;;;;;;61.30;52.60;;;;;;;15.18;59.39;100739.00;4918497;29;20028;-77
2021/01/01 02:26:40;;;;;;;59.40;52.88;;;;;;;15.18;59.91;100739.84;4918698;29;20047;-78
2021/01/01 02:29:06;;;;;;;57.13;51.03;;;;;;;15.17;59.26;100738.09;4919597;29;20058;-78
2021/01/01 02:31:31;;;;;;;57.88;51.35;;;;;;;15.17;59.29;100738.09;4902815;29;20028;-78
2021/01/01 02:33:57;;;;;;;58.08;51.28;;;;;;;15.18;59.13;100744.19;4918386;29;20059;-78
2021/01/01 02:36:23;;;;;;;58.05;51.83;;;;;;;15.17;59.37;100739.84;4906158;29;20039;-78
2021/01/01 02:38:48;;;;;;;58.80;51.65;;;;;;;15.16;60.16;100741.59;4919952;29;20028;-78
2021/01/01 02:41:14;;;;;;;58.13;51.83;;;;;;;15.18;59.15;100749.38;4900426;29;20036;-78
2021/01/01 02:43:39;;;;;;;56.80;50.75;;;;;;;15.16;59.46;100746.75;4911897;29;20500;-78
2021/01/01 02:46:05;;;;;;;58.55;50.72;;;;;;;15.17;59.18;100750.22;4886817;29;20492;-78
2021/01/01 02:48:30;;;;;;;58.85;51.05;;;;;;;15.17;58.89;100750.22;4921250;29;20380;-77
2021/01/01 02:50:55;;;;;;;58.35;51.45;;;;;;;15.15;60.67;100745.03;4920466;29;20028;-77
2021/01/01 02:53:21;;;;;;;58.50;52.10;;;;;;;15.16;59.11;100746.75;4920714;29;20119;-77
2021/01/01 02:55:48;;;;;;;57.17;50.92;;;;;;;15.15;58.68;100747.63;4912527;29;20036;-77
2021/01/01 02:58:14;;;;;;;57.13;50.95;;;;;;;15.13;58.79;100745.91;4915022;29;20047;-78
2021/01/01 03:00:41;;;;;;;60.58;52.25;;;;;;;15.16;59.69;100751.94;4918835;29;20118;-77
2021/01/01 03:03:06;;;;;;;56.45;50.25;;;;;;;15.15;58.68;100746.75;4895728;29;20052;-77
2021/01/01 03:05:32;;;;;;;57.90;50.50;;;;;;;15.14;58.69;100747.63;4894290;29;20055;-77
2021/01/01 03:07:57;;;;;;;56.63;50.35;;;;;;;15.15;59.84;100742.44;4914086;29;20043;-77
2021/01/01 03:10:23;;;;;;;55.90;49.78;;;;;;;15.15;58.59;100742.44;4918261;29;20036;-77
2021/01/01 03:12:48;;;;;;;56.92;50.13;;;;;;;15.14;59.37;100738.13;4891364;29;20056;-78
2021/01/01 03:15:14;;;;;;;59.00;49.55;;;;;;;15.14;58.63;100734.69;4914450;29;22243;-77
2021/01/01 03:17:41;;;;;;;57.13;50.85;;;;;;;15.14;58.86;100742.47;4897610;29;20103;-78
2021/01/01 03:20:07;;;;;;;56.90;48.92;;;;;;;15.14;58.44;100739.88;4902700;29;20047;-78
2021/01/01 03:22:32;;;;;;;54.67;48.88;;;;;;;15.14;58.55;100739.88;4917830;29;20024;-77
2021/01/01 03:24:58;;;;;;;54.90;49.03;;;;;;;15.14;58.52;100739.88;4886387;29;20032;-77
2021/01/01 03:27:23;;;;;;;55.80;49.80;;;;;;;15.15;59.69;100738.97;4899030;29;20039;-78
2021/01/01 03:29:49;;;;;;;56.05;49.95;;;;;;;15.13;58.67;100736.38;4912860;29;20035;-77
2021/01/01 03:32:14;;;;;;;55.47;49.47;;;;;;;15.15;58.29;100736.38;4916783;29;20510;-78
2021/01/01 03:34:40;;;;;;;55.10;48.25;;;;;;;15.15;58.74;100733.81;4918486;29;20032;-77
2021/01/01 03:37:05;;;;;;;55.95;48.55;;;;;;;15.15;58.17;100733.81;4917617;29;20028;-78
2021/01/01 03:39:30;;;;;;;54.42;48.53;;;;;;;15.14;58.27;100732.09;4919407;29;20039;-77
2021/01/01 03:41:56;;;;;;;55.78;48.20;;;;;;;15.14;58.34;100732.09;4917899;29;20122;-78
2021/01/01 03:44:21;;;;;;;53.58;47.70;;;;;;;15.13;58.37;100732.94;4902140;29;20479;-78
2021/01/01 03:46:47;;;;;;;53.95;48.17;;;;;;;15.13;58.30;100735.53;4886348;29;20072;-78
2021/01/01 03:49:12;;;;;;;53.35;47.22;;;;;;;15.13;58.32;100735.53;4871037;29;20136;-77
2021/01/01 03:51:37;;;;;;;53.78;48.00;;;;;;;15.14;58.46;100734.69;4902132;29;20063;-78
2021/01/01 03:54:03;;;;;;;52.50;46.92;;;;;;;15.14;58.11;100737.28;4917737;29;20032;-77
2021/01/01 03:56:28;;;;;;;52.58;46.75;;;;;;;15.14;58.36;100729.50;4886137;29;20036;-78
2021/01/01 03:58:54;;;;;;;53.25;46.60;;;;;;;15.14;58.12;100729.50;4871969;29;20036;-78
2021/01/01 04:01:19;;;;;;;52.65;47.00;;;;;;;15.15;57.85;100733.81;4901886;29;20024;-78
2021/01/01 04:03:45;;;;;;;51.33;45.63;;;;;;;15.15;59.61;100734.66;4918470;29;20444;-77
2021/01/01 04:06:10;;;;;;;53.13;46.95;;;;;;;15.13;57.66;100736.38;4883891;29;20135;-78
2021/01/01 04:08:36;;;;;;;54.58;47.33;;;;;;;15.15;58.49;100734.66;4864143;29;20380;-78
2021/01/01 04:11:02;;;;;;;51.50;45.53;;;;;;;15.16;59.44;100735.53;4899116;29;20083;-78
2021/01/01 04:13:27;;;;;;;53.38;47.70;;;;;;;15.13;57.93;100733.78;4896307;29;20568;-77
2021/01/01 04:15:52;;;;;;;50.30;44.97;;;;;;;15.15;57.61;100736.38;4885971;29;20024;-78
2021/01/01 04:18:18;;;;;;;53.28;47.60;;;;;;;15.15;59.85;100737.25;4901415;29;20539;-78
2021/01/01 04:20:43;;;;;;;51.70;45.85;;;;;;;15.14;57.90;100732.09;4874613;29;20377;-77
2021/01/01 04:23:09;;;;;;;51.17;45.60;;;;;;;15.12;57.74;100732.06;4898634;29;20044;-78
2021/01/01 04:25:34;;;;;;;51.70;46.10;;;;;;;15.14;58.14;100732.09;4918437;29;20435;-78
2021/01/01 04:28:00;;;;;;;52.45;46.72;;;;;;;15.17;60.24;100739.84;4900869;29;20031;-78
2021/01/01 04:30:25;;;;;;;53.15;47.40;;;;;;;15.17;61.35;100737.25;4900837;29;20114;-78
2021/01/01 04:32:50;;;;;;;49.47;44.28;;;;;;;15.15;57.54;100742.44;4914462;29;20032;-78
2021/01/01 04:35:16;;;;;;;50.10;44.65;;;;;;;15.13;57.62;100738.13;4885417;29;20036;-78
2021/01/01 04:37:41;;;;;;;49.80;44.45;;;;;;;15.14;58.17;100743.31;4890426;29;20036;-78
2021/01/01 04:40:07;;;;;;;48.63;43.30;;;;;;;15.13;57.50;100732.94;4900690;29;20028;-78
2021/01/01 04:42:33;;;;;;;48.50;43.28;;;;;;;15.14;57.64;100739.88;4902422;29;20075;-78
2021/01/01 04:44:58;;;;;;;49.63;44.22;;;;;;;15.14;58.12;100738.13;4916394;29;20028;-78
2021/01/01 04:47:26;;;;;;;50.13;44.70;;;;;;;15.14;57.61;100737.28;4901203;29;20546;-78
2021/01/01 04:49:53;;;;;;;49.17;43.75;;;;;;;15.16;58.20;100738.13;4916980;29;20030;-78
2021/01/01 04:52:18;;;;;;;48.72;43.35;;;;;;;15.13;58.07;100728.59;4901185;29;20039;-77
2021/01/01 04:54:45;;;;;;;48.10;43.03;;;;;;;15.12;57.69;100734.66;4884011;29;20032;-78
2021/01/01 04:57:11;;;;;;;50.25;43.60;;;;;;;15.12;57.77;100733.81;4898042;29;20037;-77
2021/01/01 04:59:36;;;;;;;48.20;42.67;;;;;;;15.12;57.44;100739.84;4882447;29;20088;-78
2021/01/01 05:02:02;;;;;;;48.28;42.70;;;;;;;15.12;57.47;100737.25;4897963;29;20039;-78
2021/01/01 05:04:28;;;;;;;49.40;44.10;;;;;;;15.14;58.12;100738.13;4917685;29;20533;-78
2021/01/01 05:06:55;;;;;;;47.80;42.70;;;;;;;15.17;59.05;100739.84;4916522;29;20130;-78
2021/01/01 05:09:20;;;;;;;49.42;44.03;;;;;;;15.16;58.11;100746.75;4917603;29;20032;-78
2021/01/01 05:11:45;;;;;;;47.88;42.60;;;;;;;15.15;57.62;100738.97;4898012;29;20043;-78
2021/01/01 05:14:11;;;;;;;47.67;42.58;;;;;;;15.14;57.96;100743.31;4915965;29;20040;-78
2021/01/01 05:16:36;;;;;;;47.92;41.67;;;;;;;15.13;57.16;100738.97;4881959;29;20559;-78
2021/01/01 05:19:10;;;;;;;48.75;43.42;;;;;;;15.13;57.03;100735.53;4897659;29;20043;-78
2021/01/01 05:21:37;;;;;;;51.80;45.50;;;;;;;15.14;58.70;100740.72;4904716;29;20131;-78
2021/01/01 05:24:05;;;;;;;47.22;40.67;;;;;;;15.14;57.22;100743.31;4883887;29;20080;-78
2021/01/01 05:26:30;;;;;;;47.65;42.25;;;;;;;15.15;57.93;100737.25;4897187;29;20032;-78
2021/01/01 05:29:06;;;;;;;47.05;41.88;;;;;;;15.15;57.52;100737.25;4896996;29;20040;-78
2021/01/01 05:31:39;;;;;;;49.33;41.88;;;;;;;15.16;56.93;100744.16;4916099;29;20034;-78
2021/01/01 05:34:19;;;;;;;46.20;41.23;;;;;;;15.14;56.81;100739.88;4916160;29;20032;-79
2021/01/01 05:36:46;;;;;;;46.10;41.33;;;;;;;15.15;57.39;100745.03;4898870;29;20037;-78
2021/01/01 05:39:14;;;;;;;51.00;43.88;;;;;;;15.16;57.42;100743.31;4915432;29;20037;-79
2021/01/01 05:41:49;;;;;;;49.08;43.15;;;;;;;15.14;57.65;100747.63;4896930;29;20067;-79
2021/01/01 05:44:27;;;;;;;47.13;41.97;;;;;;;15.15;58.59;100746.75;4915416;29;20036;-79
2021/01/01 05:47:05;;;;;;;48.42;42.22;;;;;;;15.14;56.71;100740.72;4909003;29;20036;-79
2021/01/01 05:49:35;;;;;;;46.83;41.10;;;;;;;15.14;57.54;100745.03;4901741;29;20029;-79
2021/01/01 05:52:08;;;;;;;46.75;41.60;;;;;;;15.14;57.39;100745.91;4913412;29;20084;-79
2021/01/01 05:54:35;;;;;;;46.95;40.35;;;;;;;15.14;56.96;100745.03;4917023;29;20084;-79
2021/01/01 05:57:04;;;;;;;48.70;41.72;;;;;;;15.12;56.90;100742.44;4916829;29;20028;-78
2021/01/01 05:59:29;;;;;;;46.00;41.10;;;;;;;15.14;57.08;100745.91;4917050;29;20123;-78
2021/01/01 06:01:56;;;;;;;45.90;40.50;;;;;;;15.13;56.79;100746.75;4911636;29;20051;-79
2021/01/01 06:04:23;;;;;;;46.75;41.65;;;;;;;15.13;56.64;100749.34;4917370;29;20032;-79
2021/01/01 06:06:52;;;;;;;45.85;40.90;;;;;;;15.14;57.79;100750.22;4899306;29;20119;-79
2021/01/01 06:09:18;;;;;;;46.35;41.35;;;;;;;15.12;56.88;100757.16;4914353;29;20431;-79
2021/01/01 06:12:13;;;;;;;46.65;41.55;;;;;;;15.16;57.83;100753.69;4907822;29;20032;-79
2021/01/01 06:14:42;;;;;;;;;;;;;;;15.14;57.24;100755.41;4914679;29;20051;-78
2021/01/01 06:17:10;;;;;;;46.97;40.22;;;;;;;15.14;57.64;100761.44;4906282;29;19921;-78
2021/01/01 06:19:58;;;;;;;44.55;39.80;;;;;;;15.13;56.96;100764.03;4908260;29;20028;-79
2021/01/01 06:22:25;;;;;;;47.22;42.13;;;;;;;15.15;57.38;100760.56;4897354;29;20556;-79
2021/01/01 06:24:52;;;;;;;46.15;40.63;;;;;;;15.13;56.91;100761.44;4896198;29;20038;-79
2021/01/01 06:27:19;;;;;;;45.10;40.22;;;;;;;15.12;56.97;100760.59;4912151;29;20043;-79
2021/01/01 06:29:46;;;;;;;46.22;41.17;;;;;;;15.14;56.87;100760.59;4898266;29;20059;-79
2021/01/01 06:32:13;;;;;;;47.72;40.83;;;;;;;15.13;56.81;100767.47;4916331;29;20514;-79
2021/01/01 06:34:39;;;;;;;44.25;39.65;;;;;;;15.12;57.38;100770.97;4915396;29;20024;-79
2021/01/01 06:37:04;;;;;;;45.13;40.17;;;;;;;15.14;57.87;100765.78;4915407;29;20032;-79
2021/01/01 06:39:42;;;;;;;46.08;41.13;;;;;;;15.15;57.09;100775.28;4896503;29;20057;-79
2021/01/01 06:42:08;;;;;;;43.97;39.25;;;;;;;15.14;56.78;100776.16;4904273;29;20551;-79
2021/01/01 06:44:38;;;;;;;46.13;41.08;;;;;;;15.16;58.61;100782.19;4881239;29;20084;-79
2021/01/01 06:47:06;;;;;;;46.35;41.35;;;;;;;15.12;57.00;100788.25;4897831;29;20111;-79
2021/01/01 06:49:36;;;;;;;43.70;38.90;;;;;;;15.12;56.39;100781.31;4894855;29;21389;-79
2021/01/01 06:52:13;;;;;;;46.65;40.55;;;;;;;15.15;58.41;100788.22;4886310;29;20067;-79
2021/01/01 06:54:54;;;;;;;45.70;40.70;;;;;;;15.13;56.48;100790.81;4891340;29;20032;-79
2021/01/01 06:57:23;;;;;;;45.13;40.22;;;;;;;15.13;57.35;100795.13;4897772;29;20039;-78
2021/01/01 06:59:49;;;;;;;45.50;40.55;;;;;;;15.13;58.10;100798.59;4880835;29;20028;-79
2021/01/01 07:02:25;;;;;;;45.75;40.83;;;;;;;15.14;57.21;100799.47;4892046;29;20032;-79
2021/01/01 07:04:51;;;;;;;44.45;39.63;;;;;;;15.15;56.68;100801.19;4894393;29;20032;-79
2021/01/01 07:07:39;;;;;;;44.95;39.95;;;;;;;15.15;58.03;100798.59;4897931;29;20106;-79
2021/01/01 07:10:06;;;;;;;45.20;40.28;;;;;;;15.14;56.44;100808.09;4886270;29;20060;-81
2021/01/01 07:12:32;;;;;;;43.92;39.13;;;;;;;15.13;57.16;100813.28;4902579;29;20083;-79
2021/01/01 07:14:57;;;;;;;45.20;39.92;;;;;;;15.15;56.62;100801.19;4901806;29;20035;-79
2021/01/01 07:17:23;;;;;;;45.25;40.33;;;;;;;15.15;56.76;100812.41;4871380;29;20028;-79
2021/01/01 07:19:49;;;;;;;43.00;38.47;;;;;;;15.17;57.42;100809.84;4904081;29;20050;-82
2021/01/01 07:22:14;;;;;;;44.83;40.00;;;;;;;15.19;57.84;100810.69;4892440;29;20047;-80
2021/01/01 07:24:39;;;;;;;47.13;38.85;;;;;;;15.18;57.33;100811.59;4921772;29;20032;-82
2021/01/01 07:27:06;;;;;;;42.58;37.90;;;;;;;15.19;56.15;100813.28;4872653;29;20569;-78
2021/01/01 07:29:32;;;;;;;42.85;37.17;;;;;;;15.17;57.44;100822.78;4900146;29;20487;-79
2021/01/01 07:35:19;;;;;;;41.72;37.08;;;;;;;15.21;57.19;100827.97;4912124;29;20047;-80
2021/01/01 07:37:45;;;;;;;44.17;37.28;;;;;;;15.20;56.79;100823.66;4896093;29;20032;-80
2021/01/01 07:40:12;;;;;;;43.25;37.50;;;;;;;15.20;56.96;100820.22;4901990;29;20043;-79
2021/01/01 07:42:53;;;;;;;42.83;38.10;;;;;;;15.21;58.65;100824.53;4886500;29;20135;-79
2021/01/01 07:45:19;;;;;;;44.88;37.90;;;;;;;15.34;57.21;100822.81;4930522;29;20028;-82
2021/01/01 07:48:04;;;;;;;54.35;41.17;;;;;;;15.49;56.86;100840.09;4938589;29;20028;-82
2021/01/01 07:56:21;;;;;;;51.53;43.88;;;;;;;15.60;56.39;100846.13;5583895;23;20062;-81
2021/01/01 08:02:02;;;;;;;49.03;41.40;;;;;;;15.64;56.33;100840.06;5168906;23;20075;-81
2021/01/01 08:04:29;;;;;;;50.17;42.13;;;;;;;15.66;56.32;100848.72;4921905;29;20040;-81
2021/01/01 08:06:55;;;;;;;47.08;41.33;;;;;;;15.68;55.53;100846.97;4910919;29;20099;-80
2021/01/01 08:09:20;;;;;;;44.95;38.42;;;;;;;15.69;55.49;100847.84;4902099;29;20072;-81
2021/01/01 08:11:46;;;;;;;47.42;39.50;;;;;;;15.70;54.86;100846.97;4870853;29;20028;-80
2021/01/01 08:14:11;;;;;;;47.13;38.22;;;;;;;15.73;55.84;100849.59;4886377;29;20036;-80
2021/01/01 08:16:36;;;;;;;44.35;38.75;;;;;;;15.71;54.57;100848.69;4870605;29;20141;-80
2021/01/01 08:19:02;;;;;;;45.58;38.35;;;;;;;15.70;56.09;100852.16;4905961;29;20091;-82
2021/01/01 08:21:28;;;;;;;41.95;36.70;;;;;;;15.71;54.58;100859.09;4906386;29;20044;-82
2021/01/01 08:24:02;;;;;;;45.08;37.53;;;;;;;15.70;55.16;100866.00;4894358;29;20040;-80
2021/01/01 08:26:28;;;;;;;41.65;37.15;;;;;;;15.70;54.83;100857.34;4901297;29;20031;-79
2021/01/01 08:28:55;;;;;;;40.97;36.05;;;;;;;15.69;55.12;100861.66;4870223;29;20029;-80
2021/01/01 08:31:21;;;;;;;41.95;36.65;;;;;;;15.69;54.90;100861.66;4904119;29;20055;-80
2021/01/01 08:33:47;;;;;;;44.95;34.58;;;;;;;15.70;55.02;100855.63;4890111;29;20110;-81
2021/01/01 08:36:13;;;;;;;43.33;37.08;;;;;;;15.68;54.76;100859.94;4909673;29;20547;-80
2021/01/01 08:38:46;;;;;;;41.38;36.72;;;;;;;15.70;55.62;100859.94;4886273;29;20127;-80
2021/01/01 08:41:16;;;;;;;39.70;34.83;;;;;;;15.70;54.96;100859.94;4910811;29;20032;-80
2021/01/01 08:43:41;;;;;;;40.15;35.72;;;;;;;15.69;55.62;100853.88;4898700;29;20044;-81
2021/01/01 08:46:18;;;;;;;41.28;36.10;;;;;;;15.69;55.17;100856.47;4885826;29;20106;-80
2021/01/01 08:48:44;;;;;;;39.58;35.10;;;;;;;15.70;55.22;100858.22;4898903;29;20115;-81
2021/01/01 08:51:09;;;;;;;38.75;34.55;;;;;;;15.71;54.59;100861.69;4886213;29;20131;-80
2021/01/01 08:53:39;;;;;;;40.38;35.50;;;;;;;15.71;54.70;100859.97;4871478;29;20044;-80
2021/01/01 08:56:06;;;;;;;38.10;33.90;;;;;;;15.73;54.20;100859.97;4891634;29;20464;-81
2021/01/01 08:58:32;;;;;;;38.08;33.97;;;;;;;15.76;54.40;100855.63;4918834;29;20032;-81
2021/01/01 09:01:14;;;;;;;37.15;32.70;;;;;;;15.78;55.20;100861.69;4913430;29;20053;-81
2021/01/01 09:03:41;;;;;;;36.95;32.92;;;;;;;15.78;54.18;100858.22;5217956;23;20031;-81
2021/01/01 09:06:16;;;;;;;37.40;32.03;;;;;;;15.80;55.30;100864.28;4914979;29;20546;-82
2021/01/01 09:08:41;;;;;;;35.40;31.60;;;;;;;15.82;56.17;100871.19;4887258;29;20036;-81
2021/01/01 09:14:11;;;;;;;36.47;32.00;;;;;;;15.89;54.58;100874.63;5659320;23;21285;-79
2021/01/01 09:16:37;;;;;;;36.28;30.75;;;;;;;15.94;53.76;100874.63;4919315;29;20699;-80
2021/01/01 09:19:09;;;;;;;33.83;30.15;;;;;;;15.91;53.82;100885.88;4900313;29;20043;-80
2021/01/01 09:21:36;;;;;;;34.17;29.55;;;;;;;15.93;54.05;100880.69;4917036;29;20032;-80
2021/01/01 09:24:03;;;;;;;34.90;30.30;;;;;;;15.92;55.59;100885.03;4902106;29;20032;-81
2021/01/01 09:26:57;;;;;;;35.53;29.55;;;;;;;15.90;56.24;100889.34;4907601;29;20025;-81
2021/01/01 09:29:23;;;;;;;33.80;29.08;;;;;;;15.88;55.93;100888.50;4905421;29;20499;-81
2021/01/01 09:31:48;;;;;;;35.00;31.20;;;;;;;15.84;57.84;100885.03;4868624;29;20085;-81
2021/01/01 09:45:56;;;;;;;34.00;30.30;;;;;;;15.90;57.11;100893.69;5468109;23;20060;-81
2021/01/01 09:48:22;;;;;;;32.00;28.55;;;;;;;15.92;57.08;100891.97;5350270;23;20437;-81
2021/01/01 09:50:48;;;;;;;32.83;28.95;;;;;;;15.96;56.92;100893.66;4886847;29;20056;-81
2021/01/01 09:53:13;;;;;;;32.47;28.85;;;;;;;15.96;57.73;100896.25;4921868;29;20051;-81
2021/01/01 09:55:39;;;;;;;31.48;28.08;;;;;;;15.97;57.08;100893.66;4875358;29;20036;-81
2021/01/01 10:01:52;;;;;;;30.50;27.20;;;;;;;15.98;57.27;100899.72;4928145;29;20085;-82
2021/01/01 10:05:02;;;;;;;30.77;27.50;;;;;;;15.99;56.87;100901.47;4926864;29;20055;-82
2021/01/01 10:07:29;;;;;;;30.50;27.25;;;;;;;16.00;57.48;100895.38;4928222;29;20043;-81
2021/01/01 10:09:57;;;;;;;29.73;26.52;;;;;;;15.98;56.93;100897.13;4929541;29;20020;-82
2021/01/01 10:12:26;;;;;;;30.40;27.08;;;;;;;16.01;56.69;100904.91;4894141;29;20044;-81
2021/01/01 10:14:55;;;;;;;28.92;25.58;;;;;;;16.01;56.52;100908.38;4933790;29;20115;-81
2021/01/01 10:17:24;;;;;;;28.90;25.80;;;;;;;16.04;57.76;100908.34;4907776;29;20084;-81
2021/01/01 10:19:50;;;;;;;27.75;24.92;;;;;;;16.09;56.67;100916.16;4889836;29;20064;-82
2021/01/01 10:22:16;;;;;;;27.42;24.52;;;;;;;16.10;58.05;100915.28;4906135;29;20047;-81
2021/01/01 10:24:46;;;;;;;27.98;24.70;;;;;;;16.10;58.20;100910.06;4885489;29;20096;-81
2021/01/01 10:27:19;;;;;;;27.60;24.23;;;;;;;16.11;57.82;100906.59;4914429;29;20040;-81
2021/01/01 10:29:45;;;;;;;27.10;24.25;;;;;;;16.12;58.16;100908.34;4924888;29;20043;-81
2021/01/01 10:32:12;;;;;;;25.83;23.13;;;;;;;16.13;57.82;100912.66;4921622;29;20032;-81
2021/01/01 10:34:53;;;;;;;25.70;22.95;;;;;;;16.13;56.88;100904.88;4924143;29;20096;-82
2021/01/01 10:41:02;;;;;;;23.73;21.15;;;;;;;16.13;56.40;100907.47;4928740;29;20387;-82
2021/01/01 10:43:47;;;;;;;24.27;21.17;;;;;;;16.16;56.73;100911.81;4907228;29;20036;-82
2021/01/01 10:46:26;;;;;;;23.30;20.75;;;;;;;16.16;56.68;100911.81;4936804;29;20024;-82
2021/01/01 10:49:28;;;;;;;24.02;21.15;;;;;;;16.16;57.03;100909.22;4937833;29;20036;-82
2021/01/01 10:52:05;;;;;;;21.67;19.48;;;;;;;16.16;56.89;100906.63;4893871;29;20127;-82
2021/01/01 10:54:33;;;;;;;22.77;20.38;;;;;;;16.19;57.40;100916.97;4902386;29;20033;-82
2021/01/01 10:56:59;;;;;;;23.38;20.00;;;;;;;16.19;57.15;100901.41;4910542;29;20134;-81
2021/01/01 10:59:25;;;;;;;21.10;18.80;;;;;;;16.22;56.63;100902.28;4914802;29;20032;-81
2021/01/01 11:02:12;;;;;;;22.23;18.98;;;;;;;16.24;57.02;100908.31;4918186;29;20589;-81
2021/01/01 11:05:18;;;;;;;21.67;18.88;;;;;;;16.25;56.78;100909.19;4939789;29;20051;-82
2021/01/01 11:13:04;;;;;;;19.88;17.58;;;;;;;16.23;57.05;100903.13;5892303;23;20663;-80
2021/01/01 14:08:08;;;;;;;7.82;6.38;;;;;;;16.72;55.52;100915.06;4950566;29;20043;-81
2021/01/01 14:14:02;;;;;;;8.85;6.07;;;;;;;16.73;55.59;100924.59;4952653;29;20058;-81
2021/01/01 14:16:29;;;;;;;6.93;6.22;;;;;;;16.74;55.73;100923.72;4909969;29;20372;-81
2021/01/01 14:18:58;;;;;;;7.22;5.93;;;;;;;16.73;55.89;100915.06;5054030;24;20048;-81
2021/01/01 14:28:17;;;;;;;6.93;5.65;;;;;;;16.69;56.18;100933.28;4853940;29;20409;-81
2021/01/01 14:30:43;;;;;;;8.35;5.60;;;;;;;16.67;56.55;100930.66;4849291;29;20049;-81
2021/01/01 14:33:39;;;;;;;8.90;5.78;;;;;;;16.67;57.08;100941.06;4863096;29;20517;-82
2021/01/01 14:36:44;;;;;;;9.93;5.72;;;;;;;16.64;56.88;100934.16;4841421;29;20014;-82
2021/01/01 14:42:27;;;;;;;7.20;5.57;;;;;;;16.59;56.83;100933.31;5777688;23;20819;-83
2021/01/01 15:04:35;;;;;;;7.68;4.88;;;;;;;16.53;57.13;100943.72;5496506;23;20054;-82
2021/01/01 15:07:00;;;;;;;6.90;4.82;;;;;;;16.56;56.63;100945.44;4913947;29;20372;-82
2021/01/01 15:09:28;;;;;;;6.50;4.95;;;;;;;16.58;57.66;100951.50;4935410;29;20032;-83
2021/01/01 15:11:55;;;;;;;6.80;4.57;;;;;;;16.58;57.68;100948.91;4863469;29;20049;-80
2021/01/01 15:40:56;;;;;;;4.55;3.97;;;;;;;16.64;56.39;100964.47;5019458;23;20248;-83
2021/01/01 15:44:11;;;;;;;4.88;3.70;;;;;;;16.65;56.29;100967.03;4913053;29;20039;-83
2021/01/01 15:50:18;;;;;;;4.25;3.72;;;;;;;16.65;55.83;100969.66;4951801;29;20059;-83